sensor_id;sensor_type;location;lat;lon;timestamp;temperature;humidity
1351;DHT22;669;50.206;9.998;2022-10-15T00:00:48;13.20;90.50
1351;DHT22;669;50.206;9.998;2022-10-15T00:03:16;13.20;90.40
1351;DHT22;669;50.206;9.998;2022-10-15T00:05:44;13.20;90.40
1351;DHT22;669;50.206;9.998;2022-10-15T00:08:13;13.20;90.50
1351;DHT22;669;50.206;9.998;2022-10-15T00:10:42;13.20;90.50
1351;DHT22;669;50.206;9.998;2022-10-15T00:13:10;13.20;90.50
1351;DHT22;669;50.206;9.998;2022-10-15T00:15:38;13.20;90.50
1351;DHT22;669;50.206;9.998;2022-10-15T00:18:06;13.20;90.50
1351;DHT22;669;50.206;9.998;2022-10-15T00:20:34;13.30;90.60
1351;DHT22;669;50.206;9.998;2022-10-15T00:23:02;13.20;90.50
1351;DHT22;669;50.206;9.998;2022-10-15T00:25:30;13.30;90.60
1351;DHT22;669;50.206;9.998;2022-10-15T00:27:59;13.30;90.50
1351;DHT22;669;50.206;9.998;2022-10-15T00:30:27;13.30;90.40
1351;DHT22;669;50.206;9.998;2022-10-15T00:32:55;13.30;90.60
1351;DHT22;669;50.206;9.998;2022-10-15T00:35:22;13.30;90.60
1351;DHT22;669;50.206;9.998;2022-10-15T00:37:50;13.30;90.50
1351;DHT22;669;50.206;9.998;2022-10-15T00:40:18;13.30;90.40
1351;DHT22;669;50.206;9.998;2022-10-15T00:42:47;13.30;90.40
1351;DHT22;669;50.206;9.998;2022-10-15T00:45:16;13.30;90.40
1351;DHT22;669;50.206;9.998;2022-10-15T00:47:46;13.30;90.40
1351;DHT22;669;50.206;9.998;2022-10-15T00:50:18;13.30;90.40
1351;DHT22;669;50.206;9.998;2022-10-15T00:52:56;13.30;90.50
1351;DHT22;669;50.206;9.998;2022-10-15T00:55:28;13.30;90.40
1351;DHT22;669;50.206;9.998;2022-10-15T00:57:59;13.30;90.30
1351;DHT22;669;50.206;9.998;2022-10-15T01:00:30;13.30;90.30
1351;DHT22;669;50.206;9.998;2022-10-15T01:02:58;13.30;90.30
1351;DHT22;669;50.206;9.998;2022-10-15T01:05:26;13.30;90.20
1351;DHT22;669;50.206;9.998;2022-10-15T01:07:55;13.30;90.20
1351;DHT22;669;50.206;9.998;2022-10-15T01:10:26;13.30;90.10
1351;DHT22;669;50.206;9.998;2022-10-15T01:13:03;13.30;90.10
1351;DHT22;669;50.206;9.998;2022-10-15T01:15:42;13.30;90.20
1351;DHT22;669;50.206;9.998;2022-10-15T01:18:13;13.30;90.20
1351;DHT22;669;50.206;9.998;2022-10-15T01:20:55;13.30;90.20
1351;DHT22;669;50.206;9.998;2022-10-15T01:23:45;13.30;90.20
1351;DHT22;669;50.206;9.998;2022-10-15T01:29:22;13.30;90.30
1351;DHT22;669;50.206;9.998;2022-10-15T01:32:00;13.30;90.30
1351;DHT22;669;50.206;9.998;2022-10-15T01:34:35;13.30;90.30
1351;DHT22;669;50.206;9.998;2022-10-15T01:37:08;13.30;90.30
1351;DHT22;669;50.206;9.998;2022-10-15T01:39:40;13.30;90.30
1351;DHT22;669;50.206;9.998;2022-10-15T01:42:14;13.30;90.40
1351;DHT22;669;50.206;9.998;2022-10-15T01:44:48;13.30;90.30
1351;DHT22;669;50.206;9.998;2022-10-15T01:47:21;13.30;90.30
1351;DHT22;669;50.206;9.998;2022-10-15T01:49:52;13.30;90.30
1351;DHT22;669;50.206;9.998;2022-10-15T01:52:24;13.30;90.30
1351;DHT22;669;50.206;9.998;2022-10-15T01:54:54;13.30;90.40
1351;DHT22;669;50.206;9.998;2022-10-15T01:57:24;13.30;90.50
1351;DHT22;669;50.206;9.998;2022-10-15T01:59:53;13.40;90.60
1351;DHT22;669;50.206;9.998;2022-10-15T02:02:22;13.40;90.60
1351;DHT22;669;50.206;9.998;2022-10-15T02:04:51;13.40;90.50
1351;DHT22;669;50.206;9.998;2022-10-15T02:07:27;13.40;90.50
1351;DHT22;669;50.206;9.998;2022-10-15T02:10:03;13.40;90.50
1351;DHT22;669;50.206;9.998;2022-10-15T02:12:40;13.40;90.60
1351;DHT22;669;50.206;9.998;2022-10-15T02:15:17;13.40;90.60
1351;DHT22;669;50.206;9.998;2022-10-15T02:17:53;13.40;90.60
1351;DHT22;669;50.206;9.998;2022-10-15T02:20:30;13.40;90.60
1351;DHT22;669;50.206;9.998;2022-10-15T02:23:03;13.40;90.60
1351;DHT22;669;50.206;9.998;2022-10-15T02:25:34;13.30;90.50
1351;DHT22;669;50.206;9.998;2022-10-15T02:28:08;13.30;90.60
1351;DHT22;669;50.206;9.998;2022-10-15T02:30:39;13.30;90.60
1351;DHT22;669;50.206;9.998;2022-10-15T02:33:10;13.30;90.60
1351;DHT22;669;50.206;9.998;2022-10-15T02:35:40;13.30;90.60
1351;DHT22;669;50.206;9.998;2022-10-15T02:38:12;13.30;90.60
1351;DHT22;669;50.206;9.998;2022-10-15T02:40:42;13.30;90.60
1351;DHT22;669;50.206;9.998;2022-10-15T02:43:13;13.30;90.60
1351;DHT22;669;50.206;9.998;2022-10-15T02:45:42;13.30;91.00
1351;DHT22;669;50.206;9.998;2022-10-15T02:48:11;13.30;90.80
1351;DHT22;669;50.206;9.998;2022-10-15T02:50:39;13.30;90.80
1351;DHT22;669;50.206;9.998;2022-10-15T02:53:07;13.30;90.80
1351;DHT22;669;50.206;9.998;2022-10-15T02:55:35;13.30;90.90
1351;DHT22;669;50.206;9.998;2022-10-15T02:58:03;13.30;91.00
1351;DHT22;669;50.206;9.998;2022-10-15T03:00:31;13.30;91.00
1351;DHT22;669;50.206;9.998;2022-10-15T03:02:59;13.30;90.90
1351;DHT22;669;50.206;9.998;2022-10-15T03:05:28;13.30;91.00
1351;DHT22;669;50.206;9.998;2022-10-15T03:07:58;13.30;90.90
1351;DHT22;669;50.206;9.998;2022-10-15T03:10:26;13.30;91.00
1351;DHT22;669;50.206;9.998;2022-10-15T03:12:54;13.30;91.00
1351;DHT22;669;50.206;9.998;2022-10-15T03:15:22;13.30;91.10
1351;DHT22;669;50.206;9.998;2022-10-15T03:17:50;13.30;91.10
1351;DHT22;669;50.206;9.998;2022-10-15T03:20:18;13.30;91.10
1351;DHT22;669;50.206;9.998;2022-10-15T03:22:47;13.30;91.10
1351;DHT22;669;50.206;9.998;2022-10-15T03:25:15;13.30;91.10
1351;DHT22;669;50.206;9.998;2022-10-15T03:27:43;13.30;91.10
1351;DHT22;669;50.206;9.998;2022-10-15T03:30:12;13.30;91.10
1351;DHT22;669;50.206;9.998;2022-10-15T03:32:40;13.30;91.10
1351;DHT22;669;50.206;9.998;2022-10-15T03:35:18;13.30;91.00
1351;DHT22;669;50.206;9.998;2022-10-15T03:37:47;13.30;91.10
1351;DHT22;669;50.206;9.998;2022-10-15T03:40:15;13.30;91.20
1351;DHT22;669;50.206;9.998;2022-10-15T03:42:43;13.30;91.20
1351;DHT22;669;50.206;9.998;2022-10-15T03:45:10;13.30;91.40
1351;DHT22;669;50.206;9.998;2022-10-15T03:47:38;13.30;91.20
1351;DHT22;669;50.206;9.998;2022-10-15T03:50:07;13.30;91.20
1351;DHT22;669;50.206;9.998;2022-10-15T03:52:36;13.30;91.20
1351;DHT22;669;50.206;9.998;2022-10-15T03:55:06;13.30;91.20
1351;DHT22;669;50.206;9.998;2022-10-15T03:57:35;13.30;91.20
1351;DHT22;669;50.206;9.998;2022-10-15T04:00:05;13.30;91.20
1351;DHT22;669;50.206;9.998;2022-10-15T04:02:34;13.30;91.20
1351;DHT22;669;50.206;9.998;2022-10-15T04:05:02;13.30;91.30
1351;DHT22;669;50.206;9.998;2022-10-15T04:07:30;13.30;91.30
1351;DHT22;669;50.206;9.998;2022-10-15T04:09:57;13.30;91.30
1351;DHT22;669;50.206;9.998;2022-10-15T04:12:27;13.30;91.30
1351;DHT22;669;50.206;9.998;2022-10-15T04:14:55;13.30;91.30
1351;DHT22;669;50.206;9.998;2022-10-15T04:17:23;13.30;91.30
1351;DHT22;669;50.206;9.998;2022-10-15T04:19:51;13.30;91.30
1351;DHT22;669;50.206;9.998;2022-10-15T04:22:18;13.30;91.30
1351;DHT22;669;50.206;9.998;2022-10-15T04:24:47;13.30;91.40
1351;DHT22;669;50.206;9.998;2022-10-15T04:27:15;13.30;91.40
1351;DHT22;669;50.206;9.998;2022-10-15T04:29:46;13.30;91.40
1351;DHT22;669;50.206;9.998;2022-10-15T04:32:14;13.30;91.40
1351;DHT22;669;50.206;9.998;2022-10-15T04:34:42;13.30;91.40
1351;DHT22;669;50.206;9.998;2022-10-15T04:37:11;13.30;91.70
1351;DHT22;669;50.206;9.998;2022-10-15T04:39:39;13.40;91.40
1351;DHT22;669;50.206;9.998;2022-10-15T04:42:07;13.30;91.40
1351;DHT22;669;50.206;9.998;2022-10-15T04:44:35;13.30;91.50
1351;DHT22;669;50.206;9.998;2022-10-15T04:47:04;13.30;91.50
1351;DHT22;669;50.206;9.998;2022-10-15T04:49:32;13.30;91.50
1351;DHT22;669;50.206;9.998;2022-10-15T04:52:00;13.30;91.50
1351;DHT22;669;50.206;9.998;2022-10-15T04:54:28;13.30;91.50
1351;DHT22;669;50.206;9.998;2022-10-15T04:56:56;13.30;91.50
1351;DHT22;669;50.206;9.998;2022-10-15T04:59:24;13.30;91.50
1351;DHT22;669;50.206;9.998;2022-10-15T05:01:52;13.40;91.60
1351;DHT22;669;50.206;9.998;2022-10-15T05:04:22;13.40;91.60
1351;DHT22;669;50.206;9.998;2022-10-15T05:06:49;13.40;91.90
1351;DHT22;669;50.206;9.998;2022-10-15T05:09:17;13.40;91.60
1351;DHT22;669;50.206;9.998;2022-10-15T05:11:45;13.40;91.60
1351;DHT22;669;50.206;9.998;2022-10-15T05:14:13;13.40;91.60
1351;DHT22;669;50.206;9.998;2022-10-15T05:16:42;13.40;91.60
1351;DHT22;669;50.206;9.998;2022-10-15T05:19:10;13.30;91.60
1351;DHT22;669;50.206;9.998;2022-10-15T05:21:39;13.30;91.50
1351;DHT22;669;50.206;9.998;2022-10-15T05:24:08;13.30;91.50
1351;DHT22;669;50.206;9.998;2022-10-15T05:26:36;13.30;91.50
1351;DHT22;669;50.206;9.998;2022-10-15T05:29:04;13.30;91.50
1351;DHT22;669;50.206;9.998;2022-10-15T05:31:32;13.30;91.50
1351;DHT22;669;50.206;9.998;2022-10-15T05:34:05;13.30;91.60
1351;DHT22;669;50.206;9.998;2022-10-15T05:36:33;13.30;91.60
1351;DHT22;669;50.206;9.998;2022-10-15T05:39:04;13.30;91.60
1351;DHT22;669;50.206;9.998;2022-10-15T05:41:36;13.30;91.60
1351;DHT22;669;50.206;9.998;2022-10-15T05:44:04;13.30;91.60
1351;DHT22;669;50.206;9.998;2022-10-15T05:46:32;13.30;91.60
1351;DHT22;669;50.206;9.998;2022-10-15T05:49:00;13.30;91.70
1351;DHT22;669;50.206;9.998;2022-10-15T05:51:28;13.30;91.70
1351;DHT22;669;50.206;9.998;2022-10-15T05:53:57;13.30;91.70
1351;DHT22;669;50.206;9.998;2022-10-15T05:56:26;13.30;91.70
1351;DHT22;669;50.206;9.998;2022-10-15T05:58:54;13.30;91.70
1351;DHT22;669;50.206;9.998;2022-10-15T06:01:22;13.30;91.70
1351;DHT22;669;50.206;9.998;2022-10-15T06:03:51;13.40;91.70
1351;DHT22;669;50.206;9.998;2022-10-15T06:06:20;13.40;91.80
1351;DHT22;669;50.206;9.998;2022-10-15T06:08:49;13.40;91.70
1351;DHT22;669;50.206;9.998;2022-10-15T06:11:17;13.40;91.80
1351;DHT22;669;50.206;9.998;2022-10-15T06:13:47;13.50;91.90
1351;DHT22;669;50.206;9.998;2022-10-15T06:16:16;13.50;91.80
1351;DHT22;669;50.206;9.998;2022-10-15T06:18:50;13.50;91.80
1351;DHT22;669;50.206;9.998;2022-10-15T06:21:18;13.50;91.80
1351;DHT22;669;50.206;9.998;2022-10-15T06:23:46;13.60;91.80
1351;DHT22;669;50.206;9.998;2022-10-15T06:26:15;13.60;91.80
1351;DHT22;669;50.206;9.998;2022-10-15T06:28:42;13.60;91.80
1351;DHT22;669;50.206;9.998;2022-10-15T06:31:12;13.60;91.80
1351;DHT22;669;50.206;9.998;2022-10-15T06:33:40;13.60;91.80
1351;DHT22;669;50.206;9.998;2022-10-15T06:36:09;13.60;91.80
1351;DHT22;669;50.206;9.998;2022-10-15T06:38:39;13.60;91.80
1351;DHT22;669;50.206;9.998;2022-10-15T06:41:09;13.60;91.80
1351;DHT22;669;50.206;9.998;2022-10-15T06:43:38;13.60;91.80
1351;DHT22;669;50.206;9.998;2022-10-15T06:46:06;13.60;91.80
1351;DHT22;669;50.206;9.998;2022-10-15T06:48:35;13.60;91.80
1351;DHT22;669;50.206;9.998;2022-10-15T06:51:03;13.60;91.80
1351;DHT22;669;50.206;9.998;2022-10-15T06:53:32;13.60;91.80
1351;DHT22;669;50.206;9.998;2022-10-15T06:56:01;13.60;91.80
1351;DHT22;669;50.206;9.998;2022-10-15T06:58:29;13.70;91.80
1351;DHT22;669;50.206;9.998;2022-10-15T07:01:00;13.70;91.80
1351;DHT22;669;50.206;9.998;2022-10-15T07:03:29;13.70;91.80
1351;DHT22;669;50.206;9.998;2022-10-15T07:06:02;13.70;91.80
1351;DHT22;669;50.206;9.998;2022-10-15T07:08:30;13.70;91.80
1351;DHT22;669;50.206;9.998;2022-10-15T07:11:00;13.70;91.80
1351;DHT22;669;50.206;9.998;2022-10-15T07:13:29;13.70;91.80
1351;DHT22;669;50.206;9.998;2022-10-15T07:15:57;13.80;91.90
1351;DHT22;669;50.206;9.998;2022-10-15T07:18:25;13.80;91.80
1351;DHT22;669;50.206;9.998;2022-10-15T07:20:52;13.80;91.80
1351;DHT22;669;50.206;9.998;2022-10-15T07:23:22;13.80;91.90
1351;DHT22;669;50.206;9.998;2022-10-15T07:25:53;13.80;91.80
1351;DHT22;669;50.206;9.998;2022-10-15T07:28:21;13.90;91.80
1351;DHT22;669;50.206;9.998;2022-10-15T07:30:50;13.90;91.70
1351;DHT22;669;50.206;9.998;2022-10-15T07:33:18;13.90;91.70
1351;DHT22;669;50.206;9.998;2022-10-15T07:35:46;13.90;91.70
1351;DHT22;669;50.206;9.998;2022-10-15T07:38:14;13.90;91.70
1351;DHT22;669;50.206;9.998;2022-10-15T07:40:44;13.90;91.70
1351;DHT22;669;50.206;9.998;2022-10-15T07:43:13;14.00;91.70
1351;DHT22;669;50.206;9.998;2022-10-15T07:45:46;14.00;91.70
1351;DHT22;669;50.206;9.998;2022-10-15T07:48:14;14.00;91.60
1351;DHT22;669;50.206;9.998;2022-10-15T07:50:42;14.10;91.50
1351;DHT22;669;50.206;9.998;2022-10-15T07:53:10;14.10;91.40
1351;DHT22;669;50.206;9.998;2022-10-15T07:55:38;14.10;91.40
1351;DHT22;669;50.206;9.998;2022-10-15T07:58:07;14.10;91.30
1351;DHT22;669;50.206;9.998;2022-10-15T08:00:35;14.10;91.10
1351;DHT22;669;50.206;9.998;2022-10-15T08:03:03;14.10;91.00
1351;DHT22;669;50.206;9.998;2022-10-15T08:05:32;14.10;90.90
1351;DHT22;669;50.206;9.998;2022-10-15T08:08:00;14.10;90.90
1351;DHT22;669;50.206;9.998;2022-10-15T08:10:28;14.10;90.90
1351;DHT22;669;50.206;9.998;2022-10-15T08:12:56;14.10;90.70
1351;DHT22;669;50.206;9.998;2022-10-15T08:15:25;14.10;90.80
1351;DHT22;669;50.206;9.998;2022-10-15T08:17:53;14.10;90.70
1351;DHT22;669;50.206;9.998;2022-10-15T08:20:21;14.10;90.70
1351;DHT22;669;50.206;9.998;2022-10-15T08:22:49;14.10;90.80
1351;DHT22;669;50.206;9.998;2022-10-15T08:25:17;14.10;90.80
1351;DHT22;669;50.206;9.998;2022-10-15T08:27:45;14.20;90.80
1351;DHT22;669;50.206;9.998;2022-10-15T08:30:13;14.10;90.80
1351;DHT22;669;50.206;9.998;2022-10-15T08:32:43;14.10;90.80
1351;DHT22;669;50.206;9.998;2022-10-15T08:35:11;14.10;90.80
1351;DHT22;669;50.206;9.998;2022-10-15T08:37:39;14.10;90.90
1351;DHT22;669;50.206;9.998;2022-10-15T08:40:09;14.10;90.80
1351;DHT22;669;50.206;9.998;2022-10-15T08:42:40;14.20;91.00
1351;DHT22;669;50.206;9.998;2022-10-15T08:45:12;14.20;91.00
1351;DHT22;669;50.206;9.998;2022-10-15T08:47:44;14.30;90.80
1351;DHT22;669;50.206;9.998;2022-10-15T08:50:19;14.30;90.70
1351;DHT22;669;50.206;9.998;2022-10-15T08:52:50;14.40;90.70
1351;DHT22;669;50.206;9.998;2022-10-15T08:55:21;14.50;90.70
1351;DHT22;669;50.206;9.998;2022-10-15T08:57:53;14.60;90.20
1351;DHT22;669;50.206;9.998;2022-10-15T09:00:25;14.70;90.40
1351;DHT22;669;50.206;9.998;2022-10-15T09:03:00;14.70;89.90
1351;DHT22;669;50.206;9.998;2022-10-15T09:05:35;14.80;90.10
1351;DHT22;669;50.206;9.998;2022-10-15T09:08:12;14.90;89.70
1351;DHT22;669;50.206;9.998;2022-10-15T09:10:44;15.10;88.50
1351;DHT22;669;50.206;9.998;2022-10-15T09:13:15;15.10;88.50
1351;DHT22;669;50.206;9.998;2022-10-15T09:15:50;15.20;88.00
1351;DHT22;669;50.206;9.998;2022-10-15T09:18:22;15.20;87.60
1351;DHT22;669;50.206;9.998;2022-10-15T09:20:51;15.20;87.70
1351;DHT22;669;50.206;9.998;2022-10-15T09:23:22;15.30;87.50
1351;DHT22;669;50.206;9.998;2022-10-15T09:25:58;15.40;86.70
1351;DHT22;669;50.206;9.998;2022-10-15T09:28:34;15.50;85.20
1351;DHT22;669;50.206;9.998;2022-10-15T09:31:07;15.50;84.10
1351;DHT22;669;50.206;9.998;2022-10-15T09:33:42;15.50;83.40
1351;DHT22;669;50.206;9.998;2022-10-15T09:36:23;15.60;82.70
1351;DHT22;669;50.206;9.998;2022-10-15T09:39:02;15.60;82.30
1351;DHT22;669;50.206;9.998;2022-10-15T09:41:40;15.60;82.70
1351;DHT22;669;50.206;9.998;2022-10-15T09:44:15;15.50;83.00
1351;DHT22;669;50.206;9.998;2022-10-15T09:46:49;15.50;83.30
1351;DHT22;669;50.206;9.998;2022-10-15T09:49:22;15.50;83.60
1351;DHT22;669;50.206;9.998;2022-10-15T09:51:57;15.50;82.90
1351;DHT22;669;50.206;9.998;2022-10-15T09:54:36;15.50;83.50
1351;DHT22;669;50.206;9.998;2022-10-15T09:57:08;15.60;84.20
1351;DHT22;669;50.206;9.998;2022-10-15T09:59:40;15.70;81.60
1351;DHT22;669;50.206;9.998;2022-10-15T10:02:19;15.80;82.00
1351;DHT22;669;50.206;9.998;2022-10-15T10:04:50;16.00;81.30
1351;DHT22;669;50.206;9.998;2022-10-15T10:07:29;16.10;79.60
1351;DHT22;669;50.206;9.998;2022-10-15T10:10:00;16.20;78.40
1351;DHT22;669;50.206;9.998;2022-10-15T10:12:31;16.20;78.70
1351;DHT22;669;50.206;9.998;2022-10-15T10:15:04;16.20;78.30
1351;DHT22;669;50.206;9.998;2022-10-15T10:17:32;16.20;78.30
1351;DHT22;669;50.206;9.998;2022-10-15T10:20:17;16.20;77.50
1351;DHT22;669;50.206;9.998;2022-10-15T10:22:46;16.30;78.00
1351;DHT22;669;50.206;9.998;2022-10-15T10:25:36;16.30;77.90
1351;DHT22;669;50.206;9.998;2022-10-15T10:28:14;16.60;79.00
1351;DHT22;669;50.206;9.998;2022-10-15T10:30:52;17.00;78.40
1351;DHT22;669;50.206;9.998;2022-10-15T10:33:24;17.20;75.40
1351;DHT22;669;50.206;9.998;2022-10-15T10:35:55;17.40;72.50
1351;DHT22;669;50.206;9.998;2022-10-15T10:38:25;17.40;71.50
1351;DHT22;669;50.206;9.998;2022-10-15T10:40:55;17.60;71.70
1351;DHT22;669;50.206;9.998;2022-10-15T10:43:26;17.60;70.10
1351;DHT22;669;50.206;9.998;2022-10-15T10:45:58;17.60;68.80
1351;DHT22;669;50.206;9.998;2022-10-15T10:48:28;17.40;68.10
1351;DHT22;669;50.206;9.998;2022-10-15T10:51:09;17.30;67.40
1351;DHT22;669;50.206;9.998;2022-10-15T10:53:50;17.10;68.60
1351;DHT22;669;50.206;9.998;2022-10-15T10:56:22;16.90;68.80
1351;DHT22;669;50.206;9.998;2022-10-15T10:58:56;16.80;71.70
1351;DHT22;669;50.206;9.998;2022-10-15T11:01:24;16.80;72.10
1351;DHT22;669;50.206;9.998;2022-10-15T11:03:53;16.70;72.90
1351;DHT22;669;50.206;9.998;2022-10-15T11:06:47;16.70;73.30
1351;DHT22;669;50.206;9.998;2022-10-15T11:09:36;16.70;73.20
1351;DHT22;669;50.206;9.998;2022-10-15T11:12:19;16.70;73.50
1351;DHT22;669;50.206;9.998;2022-10-15T11:14:56;16.80;72.80
1351;DHT22;669;50.206;9.998;2022-10-15T11:17:35;16.80;72.80
1351;DHT22;669;50.206;9.998;2022-10-15T11:20:16;16.80;71.60
1351;DHT22;669;50.206;9.998;2022-10-15T11:23:13;16.80;72.10
1351;DHT22;669;50.206;9.998;2022-10-15T11:25:58;16.70;72.40
1351;DHT22;669;50.206;9.998;2022-10-15T11:28:46;16.60;72.90
1351;DHT22;669;50.206;9.998;2022-10-15T11:31:22;16.60;73.20
1351;DHT22;669;50.206;9.998;2022-10-15T11:34:01;16.50;73.80
1351;DHT22;669;50.206;9.998;2022-10-15T11:36:41;16.60;74.40
1351;DHT22;669;50.206;9.998;2022-10-15T11:39:35;16.60;75.00
1351;DHT22;669;50.206;9.998;2022-10-15T11:42:13;16.80;74.30
1351;DHT22;669;50.206;9.998;2022-10-15T11:45:08;16.90;73.20
1351;DHT22;669;50.206;9.998;2022-10-15T11:47:48;17.00;73.20
1351;DHT22;669;50.206;9.998;2022-10-15T11:50:27;17.10;71.20
1351;DHT22;669;50.206;9.998;2022-10-15T11:56:01;17.20;71.20
1351;DHT22;669;50.206;9.998;2022-10-15T11:58:33;17.60;69.00
1351;DHT22;669;50.206;9.998;2022-10-15T12:01:05;17.90;69.40
1351;DHT22;669;50.206;9.998;2022-10-15T12:03:39;18.00;65.20
1351;DHT22;669;50.206;9.998;2022-10-15T12:06:10;17.90;65.70
1351;DHT22;669;50.206;9.998;2022-10-15T12:08:41;17.70;66.50
1351;DHT22;669;50.206;9.998;2022-10-15T12:11:19;17.60;66.80
1351;DHT22;669;50.206;9.998;2022-10-15T12:13:55;17.40;67.00
1351;DHT22;669;50.206;9.998;2022-10-15T12:16:29;17.30;68.40
1351;DHT22;669;50.206;9.998;2022-10-15T12:19:10;17.20;70.20
1351;DHT22;669;50.206;9.998;2022-10-15T12:21:41;17.20;70.30
1351;DHT22;669;50.206;9.998;2022-10-15T12:27:31;17.30;70.80
1351;DHT22;669;50.206;9.998;2022-10-15T12:30:19;17.20;69.70
1351;DHT22;669;50.206;9.998;2022-10-15T12:32:48;17.20;70.00
1351;DHT22;669;50.206;9.998;2022-10-15T12:38:19;17.30;68.80
1351;DHT22;669;50.206;9.998;2022-10-15T12:40:59;17.40;69.20
1351;DHT22;669;50.206;9.998;2022-10-15T12:43:30;17.40;68.30
1351;DHT22;669;50.206;9.998;2022-10-15T12:46:01;17.30;67.90
1351;DHT22;669;50.206;9.998;2022-10-15T12:48:35;17.30;68.50
1351;DHT22;669;50.206;9.998;2022-10-15T12:51:36;17.20;68.50
1351;DHT22;669;50.206;9.998;2022-10-15T12:54:34;17.10;70.00
1351;DHT22;669;50.206;9.998;2022-10-15T12:57:13;16.90;71.50
1351;DHT22;669;50.206;9.998;2022-10-15T12:59:57;16.80;72.50
1351;DHT22;669;50.206;9.998;2022-10-15T13:02:34;16.70;73.60
1351;DHT22;669;50.206;9.998;2022-10-15T13:05:05;16.60;74.50
1351;DHT22;669;50.206;9.998;2022-10-15T13:07:36;16.50;76.10
1351;DHT22;669;50.206;9.998;2022-10-15T13:10:17;16.40;78.30
1351;DHT22;669;50.206;9.998;2022-10-15T13:12:50;16.30;79.00
1351;DHT22;669;50.206;9.998;2022-10-15T13:15:21;16.30;79.70
1351;DHT22;669;50.206;9.998;2022-10-15T13:17:50;16.20;80.10
1351;DHT22;669;50.206;9.998;2022-10-15T13:20:31;16.10;80.70
1351;DHT22;669;50.206;9.998;2022-10-15T13:23:13;16.00;82.50
1351;DHT22;669;50.206;9.998;2022-10-15T13:26:16;15.90;82.60
1351;DHT22;669;50.206;9.998;2022-10-15T13:28:45;15.90;83.60
1351;DHT22;669;50.206;9.998;2022-10-15T13:31:21;15.80;84.40
1351;DHT22;669;50.206;9.998;2022-10-15T13:33:58;15.80;84.40
1351;DHT22;669;50.206;9.998;2022-10-15T13:36:30;15.80;85.40
1351;DHT22;669;50.206;9.998;2022-10-15T13:39:02;15.90;86.70
1351;DHT22;669;50.206;9.998;2022-10-15T13:41:33;16.00;87.30
1351;DHT22;669;50.206;9.998;2022-10-15T13:44:01;16.20;87.40
1351;DHT22;669;50.206;9.998;2022-10-15T13:46:33;16.30;85.80
1351;DHT22;669;50.206;9.998;2022-10-15T13:49:08;16.40;85.50
1351;DHT22;669;50.206;9.998;2022-10-15T13:51:39;16.50;84.00
1351;DHT22;669;50.206;9.998;2022-10-15T13:54:09;16.60;82.60
1351;DHT22;669;50.206;9.998;2022-10-15T13:56:41;16.60;82.30
1351;DHT22;669;50.206;9.998;2022-10-15T13:59:17;16.70;80.60
1351;DHT22;669;50.206;9.998;2022-10-15T14:01:48;16.70;79.00
1351;DHT22;669;50.206;9.998;2022-10-15T14:04:21;16.70;79.40
1351;DHT22;669;50.206;9.998;2022-10-15T14:06:54;16.70;79.90
1351;DHT22;669;50.206;9.998;2022-10-15T14:09:33;16.70;79.60
1351;DHT22;669;50.206;9.998;2022-10-15T14:12:05;16.80;78.10
1351;DHT22;669;50.206;9.998;2022-10-15T14:14:34;16.80;78.00
1351;DHT22;669;50.206;9.998;2022-10-15T14:17:05;16.80;78.10
1351;DHT22;669;50.206;9.998;2022-10-15T14:19:36;16.90;78.10
1351;DHT22;669;50.206;9.998;2022-10-15T14:22:05;16.90;77.60
1351;DHT22;669;50.206;9.998;2022-10-15T14:24:35;16.80;77.70
1351;DHT22;669;50.206;9.998;2022-10-15T14:27:05;16.80;77.60
1351;DHT22;669;50.206;9.998;2022-10-15T14:29:38;16.70;77.70
1351;DHT22;669;50.206;9.998;2022-10-15T14:32:23;16.70;78.40
1351;DHT22;669;50.206;9.998;2022-10-15T14:34:53;16.70;77.60
1351;DHT22;669;50.206;9.998;2022-10-15T14:37:37;16.70;78.20
1351;DHT22;669;50.206;9.998;2022-10-15T14:40:27;16.80;77.00
1351;DHT22;669;50.206;9.998;2022-10-15T14:43:03;16.80;75.30
1351;DHT22;669;50.206;9.998;2022-10-15T14:45:36;16.80;75.80
1351;DHT22;669;50.206;9.998;2022-10-15T14:48:11;16.90;75.80
1351;DHT22;669;50.206;9.998;2022-10-15T14:50:42;16.80;74.60
1351;DHT22;669;50.206;9.998;2022-10-15T14:53:15;16.80;74.30
1351;DHT22;669;50.206;9.998;2022-10-15T14:55:48;16.80;74.70
1351;DHT22;669;50.206;9.998;2022-10-15T14:58:19;16.80;73.40
1351;DHT22;669;50.206;9.998;2022-10-15T15:00:54;16.70;74.10
1351;DHT22;669;50.206;9.998;2022-10-15T15:03:28;16.70;75.10
1351;DHT22;669;50.206;9.998;2022-10-15T15:05:56;16.60;75.60
1351;DHT22;669;50.206;9.998;2022-10-15T15:08:25;16.60;75.90
1351;DHT22;669;50.206;9.998;2022-10-15T15:10:54;16.50;76.10
1351;DHT22;669;50.206;9.998;2022-10-15T15:13:25;16.50;76.90
1351;DHT22;669;50.206;9.998;2022-10-15T15:15:54;16.40;77.60
1351;DHT22;669;50.206;9.998;2022-10-15T15:18:22;16.40;77.80
1351;DHT22;669;50.206;9.998;2022-10-15T15:20:58;16.30;78.40
1351;DHT22;669;50.206;9.998;2022-10-15T15:23:27;16.20;79.90
1351;DHT22;669;50.206;9.998;2022-10-15T15:25:55;16.20;79.30
1351;DHT22;669;50.206;9.998;2022-10-15T15:28:25;16.20;78.30
1351;DHT22;669;50.206;9.998;2022-10-15T15:30:56;16.20;76.20
1351;DHT22;669;50.206;9.998;2022-10-15T15:33:25;16.30;76.50
1351;DHT22;669;50.206;9.998;2022-10-15T15:36:00;16.10;77.40
1351;DHT22;669;50.206;9.998;2022-10-15T15:38:28;16.10;77.80
1351;DHT22;669;50.206;9.998;2022-10-15T15:41:00;16.10;78.10
1351;DHT22;669;50.206;9.998;2022-10-15T15:43:30;16.00;78.20
1351;DHT22;669;50.206;9.998;2022-10-15T15:45:58;16.00;78.50
1351;DHT22;669;50.206;9.998;2022-10-15T15:48:26;16.00;79.20
1351;DHT22;669;50.206;9.998;2022-10-15T15:50:58;16.00;79.70
1351;DHT22;669;50.206;9.998;2022-10-15T15:53:27;16.00;79.90
1351;DHT22;669;50.206;9.998;2022-10-15T15:55:55;16.00;79.90
1351;DHT22;669;50.206;9.998;2022-10-15T15:58:23;16.00;79.70
1351;DHT22;669;50.206;9.998;2022-10-15T16:00:51;16.10;78.20
1351;DHT22;669;50.206;9.998;2022-10-15T16:03:19;16.10;78.40
1351;DHT22;669;50.206;9.998;2022-10-15T16:05:47;16.10;78.80
1351;DHT22;669;50.206;9.998;2022-10-15T16:08:23;16.00;79.10
1351;DHT22;669;50.206;9.998;2022-10-15T16:10:51;16.00;79.90
1351;DHT22;669;50.206;9.998;2022-10-15T16:13:19;16.00;79.90
1351;DHT22;669;50.206;9.998;2022-10-15T16:15:47;15.90;80.10
1351;DHT22;669;50.206;9.998;2022-10-15T16:18:15;15.90;79.80
1351;DHT22;669;50.206;9.998;2022-10-15T16:20:43;15.90;79.80
1351;DHT22;669;50.206;9.998;2022-10-15T16:23:15;15.90;80.30
1351;DHT22;669;50.206;9.998;2022-10-15T16:25:44;16.00;79.90
1351;DHT22;669;50.206;9.998;2022-10-15T16:28:13;15.90;79.80
1351;DHT22;669;50.206;9.998;2022-10-15T16:30:40;15.90;79.80
1351;DHT22;669;50.206;9.998;2022-10-15T16:33:08;15.90;79.80
1351;DHT22;669;50.206;9.998;2022-10-15T16:35:36;15.90;79.80
1351;DHT22;669;50.206;9.998;2022-10-15T16:38:04;15.90;79.80
1351;DHT22;669;50.206;9.998;2022-10-15T16:40:32;15.90;79.80
1351;DHT22;669;50.206;9.998;2022-10-15T16:43:02;15.90;79.80
1351;DHT22;669;50.206;9.998;2022-10-15T16:45:30;15.90;79.60
1351;DHT22;669;50.206;9.998;2022-10-15T16:47:58;15.90;78.70
1351;DHT22;669;50.206;9.998;2022-10-15T16:50:26;15.90;78.50
1351;DHT22;669;50.206;9.998;2022-10-15T16:52:54;16.00;77.90
1351;DHT22;669;50.206;9.998;2022-10-15T16:55:22;15.90;78.20
1351;DHT22;669;50.206;9.998;2022-10-15T16:57:50;15.90;78.90